Terminal Aerodrome Forecast
Issued by NWS Boise, ID

Home | Current Version | Previous Version | Text Only | Print | Product List | Glossary On
Versions: 1 2 3 4 5 6 7 8 9 10 11 12 13 14 15 16 17 18 19 20 21 22 23 24 25 26 27 28 29 30 31 32
000
FTUS45 KBOI 251121
TAFBNO
TAF
KBNO 251121Z 2512/2612 35005KT P6SM VCFG SKC
     FM251900 08015G25KT P6SM BKN120
     FM260300 21010KT P6SM -SHRA OVC070
     FM260900 22006KT P6SM OVC100=

USA.gov is the U.S. government's official web portal to all federal, state and local government web resources and services.